sensor_id;sensor_type;location;lat;lon;timestamp;P1;durP1;ratioP1;P2;durP2;ratioP2
38427;SDS011;24211;49.980;19.776;2022-11-20T00:01:27;56.42;;;22.80;;
38427;SDS011;24211;49.980;19.776;2022-11-20T00:03:55;64.45;;;24.17;;
38427;SDS011;24211;49.980;19.776;2022-11-20T00:06:24;59.55;;;23.75;;
38427;SDS011;24211;49.980;19.776;2022-11-20T00:08:54;61.05;;;23.30;;
38427;SDS011;24211;49.980;19.776;2022-11-20T00:11:24;59.42;;;23.90;;
38427;SDS011;24211;49.980;19.776;2022-11-20T00:13:54;63.53;;;25.67;;
38427;SDS011;24211;49.980;19.776;2022-11-20T00:16:24;69.57;;;26.67;;
38427;SDS011;24211;49.980;19.776;2022-11-20T00:18:54;62.93;;;23.97;;
38427;SDS011;24211;49.980;19.776;2022-11-20T00:21:23;61.75;;;25.05;;
38427;SDS011;24211;49.980;19.776;2022-11-20T00:23:53;66.93;;;25.30;;
38427;SDS011;24211;49.980;19.776;2022-11-20T00:26:22;75.30;;;27.10;;
38427;SDS011;24211;49.980;19.776;2022-11-20T00:28:52;72.82;;;26.35;;
38427;SDS011;24211;49.980;19.776;2022-11-20T00:31:25;68.00;;;24.20;;
38427;SDS011;24211;49.980;19.776;2022-11-20T00:33:53;61.95;;;23.90;;
38427;SDS011;24211;49.980;19.776;2022-11-20T00:36:24;67.22;;;26.20;;
38427;SDS011;24211;49.980;19.776;2022-11-20T00:38:55;63.30;;;25.00;;
38427;SDS011;24211;49.980;19.776;2022-11-20T00:41:24;59.30;;;24.13;;
38427;SDS011;24211;49.980;19.776;2022-11-20T00:43:55;67.77;;;25.90;;
38427;SDS011;24211;49.980;19.776;2022-11-20T00:46:24;67.03;;;26.73;;
38427;SDS011;24211;49.980;19.776;2022-11-20T00:48:54;72.30;;;25.63;;
38427;SDS011;24211;49.980;19.776;2022-11-20T00:51:22;63.33;;;25.37;;
38427;SDS011;24211;49.980;19.776;2022-11-20T00:53:54;66.13;;;24.63;;
38427;SDS011;24211;49.980;19.776;2022-11-20T00:56:23;63.63;;;25.43;;
38427;SDS011;24211;49.980;19.776;2022-11-20T00:58:51;68.33;;;25.97;;
38427;SDS011;24211;49.980;19.776;2022-11-20T01:01:19;73.73;;;26.53;;
38427;SDS011;24211;49.980;19.776;2022-11-20T01:03:53;78.87;;;27.67;;
38427;SDS011;24211;49.980;19.776;2022-11-20T01:06:26;65.87;;;25.70;;
38427;SDS011;24211;49.980;19.776;2022-11-20T01:09:04;65.63;;;24.30;;
38427;SDS011;24211;49.980;19.776;2022-11-20T01:11:37;62.23;;;23.90;;
38427;SDS011;24211;49.980;19.776;2022-11-20T01:14:12;56.50;;;22.03;;
38427;SDS011;24211;49.980;19.776;2022-11-20T01:16:44;60.90;;;22.80;;
38427;SDS011;24211;49.980;19.776;2022-11-20T01:19:17;64.73;;;23.67;;
38427;SDS011;24211;49.980;19.776;2022-11-20T01:21:48;61.55;;;23.75;;
38427;SDS011;24211;49.980;19.776;2022-11-20T01:24:19;60.63;;;23.70;;
38427;SDS011;24211;49.980;19.776;2022-11-20T01:26:49;64.87;;;23.63;;
38427;SDS011;24211;49.980;19.776;2022-11-20T01:29:21;60.10;;;22.97;;
38427;SDS011;24211;49.980;19.776;2022-11-20T01:31:51;61.23;;;24.27;;
38427;SDS011;24211;49.980;19.776;2022-11-20T01:34:20;60.97;;;23.33;;
38427;SDS011;24211;49.980;19.776;2022-11-20T01:36:49;60.27;;;23.23;;
38427;SDS011;24211;49.980;19.776;2022-11-20T01:39:18;64.03;;;23.27;;
38427;SDS011;24211;49.980;19.776;2022-11-20T01:41:51;67.37;;;23.83;;
38427;SDS011;24211;49.980;19.776;2022-11-20T01:44:57;70.03;;;24.70;;
38427;SDS011;24211;49.980;19.776;2022-11-20T01:47:35;68.70;;;25.80;;
38427;SDS011;24211;49.980;19.776;2022-11-20T01:50:13;71.60;;;26.27;;
38427;SDS011;24211;49.980;19.776;2022-11-20T01:52:47;70.90;;;25.03;;
38427;SDS011;24211;49.980;19.776;2022-11-20T01:55:24;66.83;;;25.17;;
38427;SDS011;24211;49.980;19.776;2022-11-20T01:57:57;61.03;;;24.77;;
38427;SDS011;24211;49.980;19.776;2022-11-20T02:00:28;70.27;;;26.20;;
38427;SDS011;24211;49.980;19.776;2022-11-20T02:02:57;66.70;;;25.33;;
38427;SDS011;24211;49.980;19.776;2022-11-20T02:05:47;65.20;;;25.77;;
38427;SDS011;24211;49.980;19.776;2022-11-20T02:08:24;63.90;;;24.83;;
38427;SDS011;24211;49.980;19.776;2022-11-20T02:10:51;71.17;;;25.90;;
38427;SDS011;24211;49.980;19.776;2022-11-20T02:13:18;65.77;;;24.50;;
38427;SDS011;24211;49.980;19.776;2022-11-20T02:16:05;68.33;;;24.60;;
38427;SDS011;24211;49.980;19.776;2022-11-20T02:18:51;67.67;;;27.37;;
38427;SDS011;24211;49.980;19.776;2022-11-20T02:21:24;67.40;;;26.57;;
38427;SDS011;24211;49.980;19.776;2022-11-20T02:24:29;69.27;;;24.53;;
38427;SDS011;24211;49.980;19.776;2022-11-20T02:27:08;68.67;;;26.07;;
38427;SDS011;24211;49.980;19.776;2022-11-20T02:32:29;71.83;;;25.67;;
38427;SDS011;24211;49.980;19.776;2022-11-20T02:35:06;68.83;;;26.17;;
38427;SDS011;24211;49.980;19.776;2022-11-20T02:37:47;69.27;;;25.53;;
38427;SDS011;24211;49.980;19.776;2022-11-20T02:40:17;63.97;;;23.60;;
38427;SDS011;24211;49.980;19.776;2022-11-20T02:42:44;58.43;;;23.80;;
38427;SDS011;24211;49.980;19.776;2022-11-20T02:45:11;65.95;;;25.35;;
38427;SDS011;24211;49.980;19.776;2022-11-20T02:47:38;64.80;;;24.63;;
38427;SDS011;24211;49.980;19.776;2022-11-20T02:50:06;70.80;;;24.83;;
38427;SDS011;24211;49.980;19.776;2022-11-20T02:52:33;58.07;;;21.70;;
38427;SDS011;24211;49.980;19.776;2022-11-20T02:55:00;59.07;;;23.63;;
38427;SDS011;24211;49.980;19.776;2022-11-20T02:57:28;68.10;;;25.80;;
38427;SDS011;24211;49.980;19.776;2022-11-20T02:59:55;65.17;;;24.13;;
38427;SDS011;24211;49.980;19.776;2022-11-20T03:02:22;61.67;;;24.27;;
38427;SDS011;24211;49.980;19.776;2022-11-20T03:04:49;57.57;;;22.47;;
38427;SDS011;24211;49.980;19.776;2022-11-20T03:07:17;53.70;;;21.50;;
38427;SDS011;24211;49.980;19.776;2022-11-20T03:09:44;60.07;;;20.80;;
38427;SDS011;24211;49.980;19.776;2022-11-20T03:12:11;57.97;;;20.13;;
38427;SDS011;24211;49.980;19.776;2022-11-20T03:14:38;57.43;;;20.73;;
38427;SDS011;24211;49.980;19.776;2022-11-20T03:17:05;51.40;;;20.77;;
38427;SDS011;24211;49.980;19.776;2022-11-20T03:19:32;55.33;;;21.43;;
38427;SDS011;24211;49.980;19.776;2022-11-20T03:22:00;53.33;;;20.93;;
38427;SDS011;24211;49.980;19.776;2022-11-20T03:24:27;51.80;;;20.67;;
38427;SDS011;24211;49.980;19.776;2022-11-20T03:26:55;57.30;;;22.47;;
38427;SDS011;24211;49.980;19.776;2022-11-20T03:29:22;49.20;;;20.43;;
38427;SDS011;24211;49.980;19.776;2022-11-20T03:31:49;48.40;;;19.30;;
38427;SDS011;24211;49.980;19.776;2022-11-20T03:34:16;52.77;;;20.07;;
38427;SDS011;24211;49.980;19.776;2022-11-20T03:36:43;49.17;;;19.40;;
38427;SDS011;24211;49.980;19.776;2022-11-20T03:39:11;46.77;;;19.37;;
38427;SDS011;24211;49.980;19.776;2022-11-20T03:41:39;53.60;;;20.70;;
38427;SDS011;24211;49.980;19.776;2022-11-20T03:44:09;49.83;;;18.77;;
38427;SDS011;24211;49.980;19.776;2022-11-20T03:46:38;49.57;;;18.73;;
38427;SDS011;24211;49.980;19.776;2022-11-20T03:49:05;53.20;;;20.17;;
38427;SDS011;24211;49.980;19.776;2022-11-20T03:51:34;53.93;;;19.77;;
38427;SDS011;24211;49.980;19.776;2022-11-20T03:54:06;56.23;;;19.87;;
38427;SDS011;24211;49.980;19.776;2022-11-20T03:56:36;51.53;;;19.57;;
38427;SDS011;24211;49.980;19.776;2022-11-20T03:59:04;52.90;;;20.27;;
38427;SDS011;24211;49.980;19.776;2022-11-20T04:01:33;56.70;;;19.37;;
38427;SDS011;24211;49.980;19.776;2022-11-20T04:04:04;51.63;;;19.90;;
38427;SDS011;24211;49.980;19.776;2022-11-20T04:06:35;50.83;;;18.90;;
38427;SDS011;24211;49.980;19.776;2022-11-20T04:09:04;49.05;;;18.58;;
38427;SDS011;24211;49.980;19.776;2022-11-20T04:11:33;48.47;;;17.97;;
38427;SDS011;24211;49.980;19.776;2022-11-20T04:14:04;50.77;;;18.33;;
38427;SDS011;24211;49.980;19.776;2022-11-20T04:16:38;49.50;;;18.50;;
38427;SDS011;24211;49.980;19.776;2022-11-20T04:19:06;54.27;;;18.93;;
38427;SDS011;24211;49.980;19.776;2022-11-20T04:21:38;51.20;;;18.80;;
38427;SDS011;24211;49.980;19.776;2022-11-20T04:24:05;48.27;;;17.77;;
38427;SDS011;24211;49.980;19.776;2022-11-20T04:26:34;50.10;;;18.67;;
38427;SDS011;24211;49.980;19.776;2022-11-20T04:29:01;54.03;;;19.73;;
38427;SDS011;24211;49.980;19.776;2022-11-20T04:31:30;48.90;;;19.33;;
38427;SDS011;24211;49.980;19.776;2022-11-20T04:34:00;51.23;;;18.90;;
38427;SDS011;24211;49.980;19.776;2022-11-20T04:36:33;56.83;;;20.53;;
38427;SDS011;24211;49.980;19.776;2022-11-20T04:39:02;50.33;;;19.60;;
38427;SDS011;24211;49.980;19.776;2022-11-20T04:41:33;51.58;;;19.30;;
38427;SDS011;24211;49.980;19.776;2022-11-20T04:44:03;48.10;;;18.23;;
38427;SDS011;24211;49.980;19.776;2022-11-20T04:46:33;56.33;;;19.80;;
38427;SDS011;24211;49.980;19.776;2022-11-20T04:49:08;50.70;;;19.53;;
38427;SDS011;24211;49.980;19.776;2022-11-20T04:51:38;50.53;;;19.70;;
38427;SDS011;24211;49.980;19.776;2022-11-20T04:54:05;51.63;;;19.10;;
38427;SDS011;24211;49.980;19.776;2022-11-20T04:56:32;48.73;;;19.07;;
38427;SDS011;24211;49.980;19.776;2022-11-20T04:59:00;50.00;;;20.00;;
38427;SDS011;24211;49.980;19.776;2022-11-20T05:01:28;55.83;;;20.17;;
38427;SDS011;24211;49.980;19.776;2022-11-20T05:03:55;50.83;;;19.70;;
38427;SDS011;24211;49.980;19.776;2022-11-20T05:06:23;52.77;;;20.73;;
38427;SDS011;24211;49.980;19.776;2022-11-20T05:08:50;50.30;;;19.33;;
38427;SDS011;24211;49.980;19.776;2022-11-20T05:11:19;53.40;;;18.90;;
38427;SDS011;24211;49.980;19.776;2022-11-20T05:13:48;51.83;;;19.87;;
38427;SDS011;24211;49.980;19.776;2022-11-20T05:16:20;50.83;;;20.03;;
38427;SDS011;24211;49.980;19.776;2022-11-20T05:18:50;54.13;;;20.33;;
38427;SDS011;24211;49.980;19.776;2022-11-20T05:21:21;56.97;;;22.20;;
38427;SDS011;24211;49.980;19.776;2022-11-20T05:23:48;61.00;;;22.13;;
38427;SDS011;24211;49.980;19.776;2022-11-20T05:26:17;64.53;;;22.93;;
38427;SDS011;24211;49.980;19.776;2022-11-20T05:28:48;65.43;;;23.45;;
38427;SDS011;24211;49.980;19.776;2022-11-20T05:31:21;60.63;;;22.60;;
38427;SDS011;24211;49.980;19.776;2022-11-20T05:33:54;60.03;;;22.73;;
38427;SDS011;24211;49.980;19.776;2022-11-20T05:36:23;69.97;;;25.67;;
38427;SDS011;24211;49.980;19.776;2022-11-20T05:38:51;69.27;;;24.93;;
38427;SDS011;24211;49.980;19.776;2022-11-20T05:41:24;70.40;;;25.90;;
38427;SDS011;24211;49.980;19.776;2022-11-20T05:43:51;72.37;;;25.03;;
38427;SDS011;24211;49.980;19.776;2022-11-20T05:46:19;75.10;;;24.83;;
38427;SDS011;24211;49.980;19.776;2022-11-20T05:48:53;66.70;;;24.50;;
38427;SDS011;24211;49.980;19.776;2022-11-20T05:51:22;71.43;;;26.40;;
38427;SDS011;24211;49.980;19.776;2022-11-20T05:53:49;71.43;;;25.03;;
38427;SDS011;24211;49.980;19.776;2022-11-20T05:56:20;70.87;;;25.77;;
38427;SDS011;24211;49.980;19.776;2022-11-20T05:58:48;65.97;;;24.60;;
38427;SDS011;24211;49.980;19.776;2022-11-20T06:01:23;70.07;;;25.00;;
38427;SDS011;24211;49.980;19.776;2022-11-20T06:03:52;67.17;;;24.27;;
38427;SDS011;24211;49.980;19.776;2022-11-20T06:06:21;71.03;;;24.90;;
38427;SDS011;24211;49.980;19.776;2022-11-20T06:08:48;65.90;;;24.70;;
38427;SDS011;24211;49.980;19.776;2022-11-20T06:11:16;64.00;;;23.80;;
38427;SDS011;24211;49.980;19.776;2022-11-20T06:13:44;57.53;;;23.93;;
38427;SDS011;24211;49.980;19.776;2022-11-20T06:16:14;65.57;;;24.43;;
38427;SDS011;24211;49.980;19.776;2022-11-20T06:21:14;67.07;;;23.70;;
38427;SDS011;24211;49.980;19.776;2022-11-20T06:23:43;61.60;;;23.37;;
38427;SDS011;24211;49.980;19.776;2022-11-20T06:26:15;58.97;;;22.23;;
38427;SDS011;24211;49.980;19.776;2022-11-20T06:28:45;62.87;;;22.90;;
38427;SDS011;24211;49.980;19.776;2022-11-20T06:31:15;59.20;;;22.37;;
38427;SDS011;24211;49.980;19.776;2022-11-20T06:33:45;58.03;;;23.02;;
38427;SDS011;24211;49.980;19.776;2022-11-20T06:36:14;67.87;;;24.47;;
38427;SDS011;24211;49.980;19.776;2022-11-20T06:38:43;60.23;;;23.13;;
38427;SDS011;24211;49.980;19.776;2022-11-20T06:41:12;64.70;;;22.83;;
38427;SDS011;24211;49.980;19.776;2022-11-20T06:43:43;52.85;;;18.73;;
38427;SDS011;24211;49.980;19.776;2022-11-20T06:46:11;63.57;;;23.03;;
38427;SDS011;24211;49.980;19.776;2022-11-20T06:48:40;55.83;;;22.00;;
38427;SDS011;24211;49.980;19.776;2022-11-20T06:51:07;63.63;;;22.73;;
38427;SDS011;24211;49.980;19.776;2022-11-20T06:53:35;65.03;;;23.33;;
38427;SDS011;24211;49.980;19.776;2022-11-20T06:56:04;60.27;;;22.27;;
38427;SDS011;24211;49.980;19.776;2022-11-20T06:58:33;57.43;;;23.00;;
38427;SDS011;24211;49.980;19.776;2022-11-20T07:01:06;60.90;;;23.90;;
38427;SDS011;24211;49.980;19.776;2022-11-20T07:03:39;63.60;;;24.97;;
38427;SDS011;24211;49.980;19.776;2022-11-20T07:06:07;63.95;;;23.58;;
38427;SDS011;24211;49.980;19.776;2022-11-20T07:08:35;60.63;;;22.47;;
38427;SDS011;24211;49.980;19.776;2022-11-20T07:11:04;68.13;;;23.70;;
38427;SDS011;24211;49.980;19.776;2022-11-20T07:13:33;58.80;;;22.13;;
38427;SDS011;24211;49.980;19.776;2022-11-20T07:16:01;59.93;;;23.27;;
38427;SDS011;24211;49.980;19.776;2022-11-20T07:18:32;61.13;;;22.80;;
38427;SDS011;24211;49.980;19.776;2022-11-20T07:21:00;60.13;;;23.13;;
38427;SDS011;24211;49.980;19.776;2022-11-20T07:23:29;60.45;;;23.25;;
38427;SDS011;24211;49.980;19.776;2022-11-20T07:25:56;65.77;;;22.03;;
38427;SDS011;24211;49.980;19.776;2022-11-20T07:28:23;63.53;;;23.03;;
38427;SDS011;24211;49.980;19.776;2022-11-20T07:30:51;59.17;;;22.40;;
38427;SDS011;24211;49.980;19.776;2022-11-20T07:33:20;57.83;;;21.70;;
38427;SDS011;24211;49.980;19.776;2022-11-20T07:35:47;57.30;;;21.57;;
38427;SDS011;24211;49.980;19.776;2022-11-20T07:38:14;58.53;;;21.80;;
38427;SDS011;24211;49.980;19.776;2022-11-20T07:40:41;57.80;;;22.43;;
38427;SDS011;24211;49.980;19.776;2022-11-20T07:43:09;53.80;;;21.42;;
38427;SDS011;24211;49.980;19.776;2022-11-20T07:45:36;59.42;;;22.25;;
38427;SDS011;24211;49.980;19.776;2022-11-20T07:48:03;56.87;;;21.50;;
38427;SDS011;24211;49.980;19.776;2022-11-20T07:50:31;56.10;;;21.00;;
38427;SDS011;24211;49.980;19.776;2022-11-20T07:53:04;53.17;;;21.00;;
38427;SDS011;24211;49.980;19.776;2022-11-20T07:55:32;50.63;;;19.63;;
38427;SDS011;24211;49.980;19.776;2022-11-20T07:57:59;50.57;;;19.00;;
38427;SDS011;24211;49.980;19.776;2022-11-20T08:00:27;55.33;;;19.83;;
38427;SDS011;24211;49.980;19.776;2022-11-20T08:02:55;53.30;;;20.40;;
38427;SDS011;24211;49.980;19.776;2022-11-20T08:05:22;52.23;;;20.40;;
38427;SDS011;24211;49.980;19.776;2022-11-20T08:07:49;55.10;;;21.17;;
38427;SDS011;24211;49.980;19.776;2022-11-20T08:10:17;58.63;;;22.10;;
38427;SDS011;24211;49.980;19.776;2022-11-20T08:12:48;61.33;;;22.97;;
38427;SDS011;24211;49.980;19.776;2022-11-20T08:15:37;61.72;;;24.58;;
38427;SDS011;24211;49.980;19.776;2022-11-20T08:18:09;67.27;;;24.70;;
38427;SDS011;24211;49.980;19.776;2022-11-20T08:21:01;63.45;;;24.33;;
38427;SDS011;24211;49.980;19.776;2022-11-20T08:23:31;104.03;;;37.37;;
38427;SDS011;24211;49.980;19.776;2022-11-20T08:25:59;112.60;;;38.33;;
38427;SDS011;24211;49.980;19.776;2022-11-20T08:28:26;74.47;;;27.37;;
38427;SDS011;24211;49.980;19.776;2022-11-20T08:30:57;66.57;;;25.40;;
38427;SDS011;24211;49.980;19.776;2022-11-20T08:33:26;72.93;;;26.33;;
38427;SDS011;24211;49.980;19.776;2022-11-20T08:35:57;63.33;;;25.03;;
38427;SDS011;24211;49.980;19.776;2022-11-20T08:38:27;68.60;;;25.03;;
38427;SDS011;24211;49.980;19.776;2022-11-20T08:40:58;62.70;;;24.60;;
38427;SDS011;24211;49.980;19.776;2022-11-20T08:43:46;65.87;;;24.77;;
38427;SDS011;24211;49.980;19.776;2022-11-20T08:46:14;59.43;;;24.07;;
38427;SDS011;24211;49.980;19.776;2022-11-20T08:48:41;65.70;;;24.00;;
38427;SDS011;24211;49.980;19.776;2022-11-20T08:51:10;57.17;;;23.10;;
38427;SDS011;24211;49.980;19.776;2022-11-20T08:53:38;65.35;;;23.75;;
38427;SDS011;24211;49.980;19.776;2022-11-20T08:56:06;59.83;;;22.70;;
38427;SDS011;24211;49.980;19.776;2022-11-20T08:58:34;64.83;;;21.93;;
38427;SDS011;24211;49.980;19.776;2022-11-20T09:01:21;53.77;;;21.37;;
38427;SDS011;24211;49.980;19.776;2022-11-20T09:03:49;53.43;;;21.63;;
38427;SDS011;24211;49.980;19.776;2022-11-20T09:06:17;59.03;;;21.77;;
38427;SDS011;24211;49.980;19.776;2022-11-20T09:08:44;52.37;;;20.97;;
38427;SDS011;24211;49.980;19.776;2022-11-20T09:11:12;52.27;;;20.00;;
38427;SDS011;24211;49.980;19.776;2022-11-20T09:13:38;53.10;;;19.97;;
38427;SDS011;24211;49.980;19.776;2022-11-20T09:16:06;52.80;;;20.55;;
38427;SDS011;24211;49.980;19.776;2022-11-20T09:18:35;49.80;;;19.00;;
38427;SDS011;24211;49.980;19.776;2022-11-20T09:21:09;51.28;;;18.95;;
38427;SDS011;24211;49.980;19.776;2022-11-20T09:23:39;49.30;;;18.77;;
38427;SDS011;24211;49.980;19.776;2022-11-20T09:26:08;56.73;;;20.83;;
38427;SDS011;24211;49.980;19.776;2022-11-20T09:28:40;50.78;;;19.00;;
38427;SDS011;24211;49.980;19.776;2022-11-20T09:31:08;49.67;;;18.58;;
38427;SDS011;24211;49.980;19.776;2022-11-20T09:33:50;50.67;;;19.40;;
38427;SDS011;24211;49.980;19.776;2022-11-20T09:36:17;49.00;;;18.67;;
38427;SDS011;24211;49.980;19.776;2022-11-20T09:38:45;45.80;;;18.10;;
38427;SDS011;24211;49.980;19.776;2022-11-20T09:41:21;47.85;;;18.65;;
38427;SDS011;24211;49.980;19.776;2022-11-20T09:47:36;49.17;;;18.80;;
38427;SDS011;24211;49.980;19.776;2022-11-20T09:50:33;47.05;;;16.83;;
38427;SDS011;24211;49.980;19.776;2022-11-20T09:53:13;43.53;;;17.53;;
38427;SDS011;24211;49.980;19.776;2022-11-20T09:55:50;47.08;;;18.45;;
38427;SDS011;24211;49.980;19.776;2022-11-20T10:01:21;45.60;;;18.13;;
38427;SDS011;24211;49.980;19.776;2022-11-20T10:03:57;49.97;;;18.42;;
38427;SDS011;24211;49.980;19.776;2022-11-20T10:06:34;42.30;;;17.80;;
38427;SDS011;24211;49.980;19.776;2022-11-20T10:09:34;48.47;;;18.10;;
38427;SDS011;24211;49.980;19.776;2022-11-20T10:12:12;45.72;;;17.50;;
38427;SDS011;24211;49.980;19.776;2022-11-20T10:14:56;46.60;;;18.58;;
38427;SDS011;24211;49.980;19.776;2022-11-20T10:20:39;45.92;;;17.77;;
38427;SDS011;24211;49.980;19.776;2022-11-20T10:29:15;46.05;;;18.13;;
38427;SDS011;24211;49.980;19.776;2022-11-20T10:31:51;51.80;;;19.60;;
38427;SDS011;24211;49.980;19.776;2022-11-20T10:34:28;48.88;;;19.48;;
38427;SDS011;24211;49.980;19.776;2022-11-20T10:39:47;55.88;;;20.88;;
38427;SDS011;24211;49.980;19.776;2022-11-20T10:42:41;52.92;;;20.48;;
38427;SDS011;24211;49.980;19.776;2022-11-20T10:45:28;51.53;;;19.65;;
38427;SDS011;24211;49.980;19.776;2022-11-20T10:48:33;48.47;;;19.45;;
38427;SDS011;24211;49.980;19.776;2022-11-20T11:00:17;55.50;;;21.23;;
38427;SDS011;24211;49.980;19.776;2022-11-20T11:02:48;66.10;;;25.27;;
38427;SDS011;24211;49.980;19.776;2022-11-20T11:08:36;63.45;;;23.27;;
38427;SDS011;24211;49.980;19.776;2022-11-20T11:11:12;48.83;;;18.23;;
38427;SDS011;24211;49.980;19.776;2022-11-20T11:14:03;64.80;;;23.88;;
38427;SDS011;24211;49.980;19.776;2022-11-20T11:16:33;76.10;;;27.92;;
38427;SDS011;24211;49.980;19.776;2022-11-20T11:19:11;65.78;;;24.58;;
38427;SDS011;24211;49.980;19.776;2022-11-20T11:21:50;64.07;;;23.98;;
38427;SDS011;24211;49.980;19.776;2022-11-20T11:24:24;59.70;;;22.73;;
38427;SDS011;24211;49.980;19.776;2022-11-20T11:27:12;54.90;;;22.10;;
38427;SDS011;24211;49.980;19.776;2022-11-20T11:29:45;67.00;;;25.58;;
38427;SDS011;24211;49.980;19.776;2022-11-20T11:34:44;66.00;;;26.80;;
38427;SDS011;24211;49.980;19.776;2022-11-20T11:37:17;61.05;;;24.20;;
38427;SDS011;24211;49.980;19.776;2022-11-20T11:39:50;61.38;;;23.95;;
38427;SDS011;24211;49.980;19.776;2022-11-20T11:42:41;62.53;;;24.30;;
38427;SDS011;24211;49.980;19.776;2022-11-20T11:45:14;60.10;;;23.02;;
38427;SDS011;24211;49.980;19.776;2022-11-20T11:47:45;65.88;;;27.20;;
38427;SDS011;24211;49.980;19.776;2022-11-20T11:50:16;78.53;;;29.17;;
38427;SDS011;24211;49.980;19.776;2022-11-20T11:58:34;61.03;;;23.95;;
38427;SDS011;24211;49.980;19.776;2022-11-20T12:01:21;67.35;;;24.27;;
38427;SDS011;24211;49.980;19.776;2022-11-20T12:04:42;53.38;;;22.77;;
38427;SDS011;24211;49.980;19.776;2022-11-20T12:07:12;56.20;;;23.33;;
38427;SDS011;24211;49.980;19.776;2022-11-20T12:10:38;54.60;;;21.90;;
38427;SDS011;24211;49.980;19.776;2022-11-20T12:16:00;62.08;;;22.92;;
38427;SDS011;24211;49.980;19.776;2022-11-20T12:18:30;55.75;;;22.77;;
38427;SDS011;24211;49.980;19.776;2022-11-20T12:23:50;58.15;;;21.45;;
38427;SDS011;24211;49.980;19.776;2022-11-20T12:31:52;54.83;;;22.13;;
38427;SDS011;24211;49.980;19.776;2022-11-20T12:39:48;79.22;;;28.85;;
38427;SDS011;24211;49.980;19.776;2022-11-20T12:42:22;76.13;;;30.75;;
38427;SDS011;24211;49.980;19.776;2022-11-20T12:45:46;79.00;;;29.67;;
38427;SDS011;24211;49.980;19.776;2022-11-20T12:48:49;72.65;;;26.73;;
38427;SDS011;24211;49.980;19.776;2022-11-20T12:51:58;61.72;;;23.58;;
38427;SDS011;24211;49.980;19.776;2022-11-20T12:54:55;60.17;;;23.80;;
38427;SDS011;24211;49.980;19.776;2022-11-20T12:57:50;62.85;;;23.73;;
38427;SDS011;24211;49.980;19.776;2022-11-20T13:00:54;69.68;;;27.23;;
38427;SDS011;24211;49.980;19.776;2022-11-20T13:03:39;70.30;;;27.67;;
38427;SDS011;24211;49.980;19.776;2022-11-20T13:06:18;70.45;;;26.98;;
38427;SDS011;24211;49.980;19.776;2022-11-20T13:08:53;64.50;;;26.30;;
38427;SDS011;24211;49.980;19.776;2022-11-20T13:11:34;62.78;;;26.05;;
38427;SDS011;24211;49.980;19.776;2022-11-20T13:14:26;68.03;;;26.17;;
38427;SDS011;24211;49.980;19.776;2022-11-20T13:17:16;72.10;;;28.25;;
38427;SDS011;24211;49.980;19.776;2022-11-20T13:19:58;94.35;;;35.15;;
38427;SDS011;24211;49.980;19.776;2022-11-20T13:24:56;84.07;;;32.83;;
38427;SDS011;24211;49.980;19.776;2022-11-20T13:27:24;88.88;;;34.35;;
38427;SDS011;24211;49.980;19.776;2022-11-20T13:30:02;82.10;;;31.10;;
38427;SDS011;24211;49.980;19.776;2022-11-20T13:32:50;87.40;;;33.38;;
38427;SDS011;24211;49.980;19.776;2022-11-20T13:35:32;76.40;;;30.63;;
38427;SDS011;24211;49.980;19.776;2022-11-20T13:38:07;73.97;;;28.83;;
38427;SDS011;24211;49.980;19.776;2022-11-20T13:40:51;72.53;;;29.00;;
38427;SDS011;24211;49.980;19.776;2022-11-20T13:46:07;69.28;;;28.80;;
38427;SDS011;24211;49.980;19.776;2022-11-20T13:48:40;74.88;;;29.05;;
38427;SDS011;24211;49.980;19.776;2022-11-20T13:51:28;74.10;;;27.75;;
38427;SDS011;24211;49.980;19.776;2022-11-20T14:00:22;62.25;;;25.10;;
38427;SDS011;24211;49.980;19.776;2022-11-20T14:02:57;66.00;;;25.38;;
38427;SDS011;24211;49.980;19.776;2022-11-20T14:05:46;57.55;;;24.15;;
38427;SDS011;24211;49.980;19.776;2022-11-20T14:08:28;59.92;;;23.92;;
38427;SDS011;24211;49.980;19.776;2022-11-20T14:13:57;63.50;;;24.65;;
38427;SDS011;24211;49.980;19.776;2022-11-20T14:16:42;60.47;;;24.60;;
38427;SDS011;24211;49.980;19.776;2022-11-20T14:21:47;56.78;;;23.85;;
38427;SDS011;24211;49.980;19.776;2022-11-20T14:24:43;59.63;;;23.63;;
38427;SDS011;24211;49.980;19.776;2022-11-20T14:27:15;56.47;;;22.90;;
38427;SDS011;24211;49.980;19.776;2022-11-20T14:29:47;55.65;;;23.90;;
38427;SDS011;24211;49.980;19.776;2022-11-20T14:32:17;54.83;;;22.65;;
38427;SDS011;24211;49.980;19.776;2022-11-20T14:34:48;57.57;;;22.87;;
38427;SDS011;24211;49.980;19.776;2022-11-20T14:37:21;59.40;;;23.45;;
38427;SDS011;24211;49.980;19.776;2022-11-20T14:39:59;57.60;;;22.60;;
38427;SDS011;24211;49.980;19.776;2022-11-20T14:42:28;54.92;;;23.27;;
38427;SDS011;24211;49.980;19.776;2022-11-20T14:44:58;61.38;;;24.50;;
38427;SDS011;24211;49.980;19.776;2022-11-20T14:47:27;63.03;;;24.98;;
38427;SDS011;24211;49.980;19.776;2022-11-20T14:49:57;60.13;;;23.88;;
38427;SDS011;24211;49.980;19.776;2022-11-20T14:52:34;61.85;;;24.38;;
38427;SDS011;24211;49.980;19.776;2022-11-20T14:55:01;62.17;;;24.90;;
38427;SDS011;24211;49.980;19.776;2022-11-20T14:57:29;62.60;;;24.65;;
38427;SDS011;24211;49.980;19.776;2022-11-20T15:00:18;60.60;;;24.13;;
38427;SDS011;24211;49.980;19.776;2022-11-20T15:02:48;54.40;;;22.92;;
38427;SDS011;24211;49.980;19.776;2022-11-20T15:05:18;54.58;;;24.10;;
38427;SDS011;24211;49.980;19.776;2022-11-20T15:07:52;58.25;;;23.38;;
38427;SDS011;24211;49.980;19.776;2022-11-20T15:10:33;57.22;;;23.23;;
38427;SDS011;24211;49.980;19.776;2022-11-20T15:13:15;54.95;;;22.90;;
38427;SDS011;24211;49.980;19.776;2022-11-20T15:15:56;49.35;;;21.52;;
38427;SDS011;24211;49.980;19.776;2022-11-20T15:18:28;52.67;;;21.77;;
38427;SDS011;24211;49.980;19.776;2022-11-20T15:21:03;55.42;;;22.73;;
38427;SDS011;24211;49.980;19.776;2022-11-20T15:23:37;56.22;;;22.27;;
38427;SDS011;24211;49.980;19.776;2022-11-20T15:26:05;55.15;;;22.92;;
38427;SDS011;24211;49.980;19.776;2022-11-20T15:28:46;57.00;;;22.40;;
38427;SDS011;24211;49.980;19.776;2022-11-20T15:31:17;50.10;;;21.10;;
38427;SDS011;24211;49.980;19.776;2022-11-20T15:33:48;51.75;;;21.05;;
38427;SDS011;24211;49.980;19.776;2022-11-20T15:36:15;52.92;;;21.92;;
38427;SDS011;24211;49.980;19.776;2022-11-20T15:38:43;54.53;;;22.10;;
38427;SDS011;24211;49.980;19.776;2022-11-20T15:41:10;60.70;;;22.95;;
38427;SDS011;24211;49.980;19.776;2022-11-20T15:43:38;55.17;;;22.45;;
38427;SDS011;24211;49.980;19.776;2022-11-20T15:46:06;52.78;;;21.75;;
38427;SDS011;24211;49.980;19.776;2022-11-20T15:48:44;51.40;;;21.33;;
38427;SDS011;24211;49.980;19.776;2022-11-20T15:51:22;54.17;;;21.65;;
38427;SDS011;24211;49.980;19.776;2022-11-20T15:53:55;56.90;;;21.95;;
38427;SDS011;24211;49.980;19.776;2022-11-20T15:56:23;57.20;;;23.48;;
38427;SDS011;24211;49.980;19.776;2022-11-20T15:58:51;62.90;;;24.27;;
38427;SDS011;24211;49.980;19.776;2022-11-20T16:01:20;62.75;;;24.13;;